Time;durP1;ratioP1;P1;durP2;ratioP2;P2;SDS_P1;SDS_P2;PMS_P1;PMS_P2;Temp;Humidity;BMP_temperature;BMP_pressure;BME280_temperature;BME280_humidity;BME280_pressure;Samples;Min_cycle;Max_cycle;Signal;HPM_P1;HPM_P2
2023/09/14 00:01:00;;;;;;;;;;;;;;;22.31;59.55;101729.91;4250398;27;19928;-65
2023/09/14 00:03:02;;;;;;;;;;;;;;;22.30;59.33;101721.00;4180047;28;20379;-65
2023/09/14 00:05:05;;;;;;;;;;;;;;;22.29;59.44;101719.28;4232513;27;19962;-66
2023/09/14 00:07:07;;;;;;;;;;;;;;;22.30;59.27;101721.00;4204380;27;20023;-65
2023/09/14 00:09:09;;;;;;;;;;;;;;;22.29;59.53;101718.44;4188195;27;19960;-65
2023/09/14 00:11:11;;;;;;;;;;;;;;;22.29;59.23;101721.13;4237341;27;20422;-65
2023/09/14 00:13:12;;;;;;;;;;;;;;;22.28;59.43;101714.03;4196484;28;19975;-65
2023/09/14 00:15:14;;;;;;;;;;;;;;;22.28;59.06;101709.53;4228260;27;20311;-65
2023/09/14 00:17:15;;;;;;;;;;;;;;;22.28;59.12;101712.22;4220223;27;19933;-65
2023/09/14 00:19:17;;;;;;;;;;;;;;;22.28;59.49;101711.38;4202461;27;19928;-65
2023/09/14 00:21:19;;;;;;;;;;;;;;;22.28;59.28;101714.03;4201941;27;19932;-65
2023/09/14 00:23:20;;;;;;;;;;;;;;;22.27;59.37;101717.69;4283942;27;20324;-65
2023/09/14 00:25:23;;;;;;;;;;;;;;;22.27;59.32;101713.19;4251044;27;19971;-66
2023/09/14 00:27:24;;;;;;;;;;;;;;;22.18;59.18;101700.44;4238591;27;19923;-65
2023/09/14 00:29:26;;;;;;;;;;;;;;;22.26;59.38;101716.84;4283386;27;19923;-65
2023/09/14 00:31:27;;;;;;;;;;;;;;;22.27;59.39;101715.00;4204527;27;19924;-65
2023/09/14 00:33:29;;;;;;;;;;;;;;;22.26;59.42;101718.63;4283800;27;19927;-66
2023/09/14 00:35:30;;;;;;;;;;;;;;;22.25;59.14;101714.25;4261980;27;19927;-65
2023/09/14 00:37:32;;;;;;;;;;;;;;;22.25;59.34;101711.56;4227618;27;19922;-65
2023/09/14 00:39:34;;;;;;;;;;;;;;;22.24;59.47;101713.41;4283370;27;19927;-64
2023/09/14 00:41:35;;;;;;;;;;;;;;;22.24;59.39;101718.75;4214610;27;19929;-65
2023/09/14 00:43:39;;;;;;;;;;;;;;;22.24;59.45;101715.22;4257894;27;20225;-65
2023/09/14 00:45:40;;;;;;;;;;;;;;;22.24;59.36;101718.75;4203463;27;19928;-65
2023/09/14 00:48:02;;;;;;;;;;;;;;;22.24;59.28;101717.91;4244864;27;19925;-65
2023/09/14 00:50:05;;;;;;;;;;;;;;;22.23;59.56;101725.06;4179309;28;19925;-65
2023/09/14 00:52:06;;;;;;;;;;;;;;;22.22;59.38;101723.34;4256547;27;19969;-65
2023/09/14 00:54:08;;;;;;;;;;;;;;;22.22;59.57;101722.50;4178904;27;20028;-65
2023/09/14 00:56:11;;;;;;;;;;;;;;;22.23;59.33;101718.88;4198322;27;19925;-64
2023/09/14 00:58:15;;;;;;;;;;;;;;;22.23;59.31;101718.88;4236650;27;19941;-65
2023/09/14 01:00:18;;;;;;;;;;;;;;;22.21;59.46;101718.09;4179263;28;19929;-65
2023/09/14 01:02:20;;;;;;;;;;;;;;;22.21;59.55;101715.44;4250367;27;20077;-64
2023/09/14 01:04:22;;;;;;;;;;;;;;;22.21;59.44;101710.91;4185343;27;20439;-65
2023/09/14 01:06:24;;;;;;;;;;;;;;;22.20;59.44;101717.25;4192592;27;19928;-65
2023/09/14 01:08:26;;;;;;;;;;;;;;;22.20;59.45;101713.72;4242606;27;20331;-65
2023/09/14 01:10:28;;;;;;;;;;;;;;;22.18;59.46;101720.03;4178567;28;19948;-65
2023/09/14 01:12:29;;;;;;;;;;;;;;;22.18;59.54;101720.03;4240499;27;19923;-65
2023/09/14 01:14:34;;;;;;;;;;;;;;;22.20;59.41;101724.44;4195159;27;20454;-65
2023/09/14 01:16:42;;;;;;;;;;;;;;;22.19;59.53;101726.25;4203489;27;19960;-65
2023/09/14 01:19:09;;;;;;;;;;;;;;;22.18;59.41;101728.06;4185040;28;20003;-66
2023/09/14 01:21:10;;;;;;;;;;;;;;;22.18;59.34;101721.88;4196028;27;19935;-65
2023/09/14 01:23:21;;;;;;;;;;;;;;;22.18;59.17;101714.66;4242597;27;19974;-65
2023/09/14 01:25:37;;;;;;;;;;;;;;;22.16;59.50;101721.97;4195299;28;19925;-65
2023/09/14 01:27:38;;;;;;;;;;;;;;;22.17;59.46;101725.50;4212980;27;19970;-65
2023/09/14 01:29:40;;;;;;;;;;;;;;;22.16;59.67;101721.09;4214459;27;19932;-65
2023/09/14 01:31:42;;;;;;;;;;;;;;;22.16;59.32;101715.75;4186393;27;19987;-65
2023/09/14 01:33:48;;;;;;;;;;;;;;;22.15;59.45;101720.25;4212493;27;19931;-65
2023/09/14 01:35:58;;;;;;;;;;;;;;;22.15;59.43;101725.63;4282769;27;19923;-65
2023/09/14 01:38:00;;;;;;;;;;;;;;;22.15;59.50;101728.28;4239558;27;20365;-65
2023/09/14 01:40:08;;;;;;;;;;;;;;;22.14;59.32;101729.25;4251171;27;19929;-65
2023/09/14 01:42:11;;;;;;;;;;;;;;;22.14;59.29;101728.38;4273622;27;19933;-65
2023/09/14 01:44:13;;;;;;;;;;;;;;;22.14;59.59;101723.00;4195883;27;19931;-66
2023/09/14 01:46:14;;;;;;;;;;;;;;;22.14;59.59;101723.00;4178636;28;20008;-65
2023/09/14 01:48:17;;;;;;;;;;;;;;;22.12;59.60;101720.44;4217752;27;19975;-65
2023/09/14 01:50:19;;;;;;;;;;;;;;;22.13;59.37;101732.88;4216461;27;19925;-65
2023/09/14 01:52:20;;;;;;;;;;;;;;;22.13;59.69;101732.88;4183276;27;19925;-65
2023/09/14 01:54:22;;;;;;;;;;;;;;;22.12;59.73;101731.16;4250666;27;19927;-65
2023/09/14 01:56:29;;;;;;;;;;;;;;;22.12;59.71;101727.66;4177440;28;19937;-65
2023/09/14 01:58:35;;;;;;;;;;;;;;;22.09;59.76;101723.34;4216089;27;20248;-65
2023/09/14 02:00:37;;;;;;;;;;;;;;;22.11;59.63;101726.78;4218420;27;19969;-65
2023/09/14 02:02:39;;;;;;;;;;;;;;;22.09;59.71;101726.03;4181352;27;20305;-65
2023/09/14 02:04:41;;;;;;;;;;;;;;;22.09;59.61;101720.69;4252546;27;20344;-65
2023/09/14 02:06:43;;;;;;;;;;;;;;;22.08;59.76;101724.31;4178234;28;20286;-65
2023/09/14 02:08:45;;;;;;;;;;;;;;;22.07;59.80;101725.28;4206155;27;19926;-65
2023/09/14 02:10:47;;;;;;;;;;;;;;;22.07;59.73;101719.91;4227181;27;19976;-65
2023/09/14 02:12:49;;;;;;;;;;;;;;;22.08;59.74;101726.13;4178187;28;19925;-65
2023/09/14 02:14:51;;;;;;;;;;;;;;;22.07;59.54;101722.59;4254193;27;19998;-65
2023/09/14 02:16:52;;;;;;;;;;;;;;;22.07;59.58;101725.28;4188356;27;20397;-65
2023/09/14 02:18:54;;;;;;;;;;;;;;;22.06;59.50;101720.88;4213880;27;19926;-65
2023/09/14 02:20:56;;;;;;;;;;;;;;;22.06;59.69;101712.00;4222481;27;19922;-65
2023/09/14 02:22:57;;;;;;;;;;;;;;;22.06;59.42;101718.19;4281738;27;19929;-65
2023/09/14 02:24:59;;;;;;;;;;;;;;;22.05;59.57;101721.00;4215990;27;20374;-65
2023/09/14 02:27:01;;;;;;;;;;;;;;;22.04;59.75;101719.28;4270500;27;19923;-65
2023/09/14 02:29:03;;;;;;;;;;;;;;;22.03;59.47;101715.75;4273025;27;19927;-65
2023/09/14 02:31:07;;;;;;;;;;;;;;;22.03;59.70;101713.06;4247881;27;19975;-65
2023/09/14 02:33:09;;;;;;;;;;;;;;;22.03;59.57;101718.44;4177976;28;19929;-64
2023/09/14 02:35:11;;;;;;;;;;;;;;;22.03;59.63;101710.38;4235639;27;19929;-64
2023/09/14 02:37:13;;;;;;;;;;;;;;;22.03;59.35;101707.72;4196785;27;19964;-65
2023/09/14 02:39:14;;;;;;;;;;;;;;;22.04;59.54;101709.41;4186815;27;19930;-64
2023/09/14 02:41:17;;;;;;;;;;;;;;;22.02;59.66;101706.84;4247988;27;20335;-64
2023/09/14 02:43:18;;;;;;;;;;;;;;;22.03;59.48;101710.38;4178049;28;19925;-65
2023/09/14 02:45:20;;;;;;;;;;;;;;;22.03;59.47;101713.06;4203494;27;19966;-65
2023/09/14 02:47:21;;;;;;;;;;;;;;;22.02;59.49;101708.66;4252008;27;20281;-65
2023/09/14 02:49:23;;;;;;;;;;;;;;;22.02;59.51;101706.00;4272947;27;20310;-65
2023/09/14 02:51:24;;;;;;;;;;;;;;;22.01;59.81;101707.78;4211385;27;20322;-64
2023/09/14 02:53:26;;;;;;;;;;;;;;;22.01;59.71;101704.28;4281623;27;19930;-64
2023/09/14 02:55:28;;;;;;;;;;;;;;;22.00;59.61;101703.38;4244306;27;20373;-64
2023/09/14 02:57:30;;;;;;;;;;;;;;;22.00;59.59;101705.22;4241614;27;19923;-64
2023/09/14 02:59:32;;;;;;;;;;;;;;;22.00;59.71;101699.88;4278910;27;19923;-64
2023/09/14 03:01:33;;;;;;;;;;;;;;;21.98;59.53;101702.66;4206737;27;19932;-64
2023/09/14 03:03:35;;;;;;;;;;;;;;;21.99;59.39;101696.34;4281828;27;19975;-65
2023/09/14 03:05:37;;;;;;;;;;;;;;;21.99;59.75;101703.50;4254119;27;19940;-65
2023/09/14 03:07:38;;;;;;;;;;;;;;;21.98;59.56;101699.97;4220778;27;19923;-65
2023/09/14 03:09:40;;;;;;;;;;;;;;;21.99;59.59;101707.06;4282066;27;19929;-65
2023/09/14 03:11:42;;;;;;;;;;;;;;;21.98;59.37;101694.63;4207284;27;19931;-65
2023/09/14 03:13:43;;;;;;;;;;;;;;;21.97;59.39;101690.22;4277651;27;20327;-65
2023/09/14 03:15:45;;;;;;;;;;;;;;;21.97;59.57;101692.03;4249828;27;20419;-65
2023/09/14 03:17:46;;;;;;;;;;;;;;;21.97;59.77;101689.34;4193994;28;20021;-65
2023/09/14 03:19:48;;;;;;;;;;;;;;;21.97;59.85;101697.38;4175920;28;20012;-64
2023/09/14 03:21:50;;;;;;;;;;;;;;;21.96;59.64;101695.69;4242796;27;20363;-65
2023/09/14 03:23:52;;;;;;;;;;;;;;;21.96;59.83;101693.03;4191568;27;19931;-65
2023/09/14 03:25:55;;;;;;;;;;;;;;;21.95;59.57;101693.97;4186195;27;20339;-65
2023/09/14 03:27:57;;;;;;;;;;;;;;;21.95;59.78;101689.47;4247702;27;19924;-65
2023/09/14 03:29:58;;;;;;;;;;;;;;;21.95;59.56;101693.97;4177513;28;19925;-65
2023/09/14 03:32:00;;;;;;;;;;;;;;;21.93;59.79;101688.69;4231284;27;20397;-65
2023/09/14 03:34:02;;;;;;;;;;;;;;;21.93;59.71;101683.34;4200544;27;19929;-65
2023/09/14 03:36:04;;;;;;;;;;;;;;;21.93;59.58;101679.81;4185750;27;20400;-65
2023/09/14 03:38:05;;;;;;;;;;;;;;;21.92;59.58;101678.97;4247697;27;19925;-65
2023/09/14 03:40:08;;;;;;;;;;;;;;;21.93;59.46;101686.03;4177245;28;19982;-65
2023/09/14 03:42:10;;;;;;;;;;;;;;;21.92;59.59;101684.34;4221850;27;19923;-65
2023/09/14 03:44:12;;;;;;;;;;;;;;;21.92;59.54;101675.44;4205640;27;19963;-64
2023/09/14 03:46:14;;;;;;;;;;;;;;;21.92;59.69;101678.09;4210337;27;19928;-65
2023/09/14 03:48:16;;;;;;;;;;;;;;;21.91;59.54;101685.28;4210405;27;20075;-65
2023/09/14 03:50:20;;;;;;;;;;;;;;;21.91;59.62;101679.06;4281344;27;20010;-64
2023/09/14 03:52:21;;;;;;;;;;;;;;;21.90;59.53;101683.56;4244365;27;20389;-65
2023/09/14 03:54:23;;;;;;;;;;;;;;;21.90;59.67;101683.56;4239873;27;20117;-65
2023/09/14 03:56:24;;;;;;;;;;;;;;;21.90;59.67;101680.06;4279374;27;19927;-65
2023/09/14 03:58:26;;;;;;;;;;;;;;;21.89;59.76;101673.81;4205009;27;19929;-65
2023/09/14 04:00:28;;;;;;;;;;;;;;;21.89;59.68;101679.19;4280973;27;19934;-65
2023/09/14 04:02:30;;;;;;;;;;;;;;;21.88;59.69;101674.78;4254717;27;19923;-61
2023/09/14 04:04:32;;;;;;;;;;;;;;;21.88;59.63;101682.81;4229811;27;20021;-65
2023/09/14 04:06:34;;;;;;;;;;;;;;;21.88;59.78;101677.47;4282270;27;19931;-64
2023/09/14 04:08:35;;;;;;;;;;;;;;;21.88;59.76;101681.97;4209797;27;19925;-65
2023/09/14 04:10:38;;;;;;;;;;;;;;;21.87;59.61;101673.06;4280286;27;19923;-64
2023/09/14 04:12:41;;;;;;;;;;;;;;;21.87;59.77;101673.06;4267962;27;19967;-65
2023/09/14 04:14:43;;;;;;;;;;;;;;;21.88;59.82;101684.66;4223929;27;20381;-65
2023/09/14 04:16:44;;;;;;;;;;;;;;;21.87;59.88;101681.09;4243909;27;20012;-65
2023/09/14 04:18:46;;;;;;;;;;;;;;;21.86;59.80;101674.03;4207487;27;20012;-64
2023/09/14 04:20:52;;;;;;;;;;;;;;;21.85;59.54;101673.16;4271598;27;19941;-65
2023/09/14 04:22:53;;;;;;;;;;;;;;;21.85;59.79;101675.00;4273302;27;19930;-65
2023/09/14 04:24:55;;;;;;;;;;;;;;;21.85;59.83;101673.16;4216800;27;19930;-65
2023/09/14 04:26:57;;;;;;;;;;;;;;;21.84;59.87;101673.28;4284007;27;19968;-65
2023/09/14 04:28:59;;;;;;;;;;;;;;;21.84;59.96;101670.59;4225708;27;19925;-64
2023/09/14 04:31:02;;;;;;;;;;;;;;;21.84;59.98;101670.59;4264238;27;19927;-63
2023/09/14 04:33:04;;;;;;;;;;;;;;;21.84;59.61;101670.59;4274657;27;19929;-65
2023/09/14 04:35:06;;;;;;;;;;;;;;;21.83;59.82;101676.91;4212925;27;20323;-65
2023/09/14 04:37:08;;;;;;;;;;;;;;;21.82;59.72;101676.06;4284030;27;19922;-64
2023/09/14 04:39:10;;;;;;;;;;;;;;;21.83;59.66;101680.44;4233584;27;19925;-64
2023/09/14 04:41:11;;;;;;;;;;;;;;;21.82;58.96;101673.41;4276138;27;19943;-64
2023/09/14 04:43:14;;;;;;;;;;;;;;;21.83;59.14;101675.09;4274884;27;19932;-65
2023/09/14 04:45:15;;;;;;;;;;;;;;;21.84;58.83;101681.31;4210547;27;20290;-65
2023/09/14 04:47:17;;;;;;;;;;;;;;;21.84;58.76;101684.84;4179290;28;19936;-65
2023/09/14 04:49:19;;;;;;;;;;;;;;;21.83;58.73;101680.44;4219202;27;19944;-65
2023/09/14 04:51:23;;;;;;;;;;;;;;;21.83;58.63;101683.13;4216989;27;20374;-65
2023/09/14 04:53:30;;;;;;;;;;;;;;;21.83;58.85;101684.94;4187939;27;19925;-65
2023/09/14 04:55:31;;;;;;;;;;;;;;;21.82;58.59;101681.44;4249778;27;19929;-65
2023/09/14 04:57:33;;;;;;;;;;;;;;;21.82;59.05;101686.78;4179411;28;20358;-64
2023/09/14 04:59:34;;;;;;;;;;;;;;;21.81;59.22;101687.75;4214690;27;19979;-65
2023/09/14 05:01:36;;;;;;;;;;;;;;;21.81;59.50;101692.22;4221172;27;20323;-64
2023/09/14 05:03:39;;;;;;;;;;;;;;;21.81;58.70;101689.53;4179825;27;20072;-65
2023/09/14 05:05:41;;;;;;;;;;;;;;;21.80;58.96;101686.03;4253223;27;19923;-65
2023/09/14 05:07:43;;;;;;;;;;;;;;;21.79;59.06;101686.97;4179318;28;19932;-65
2023/09/14 05:09:44;;;;;;;;;;;;;;;21.80;59.05;101687.81;4205213;27;20312;-65
2023/09/14 05:11:46;;;;;;;;;;;;;;;21.79;59.07;101689.66;4230524;27;20517;-65
2023/09/14 05:13:47;;;;;;;;;;;;;;;21.79;59.04;101696.84;4179122;28;19982;-65
2023/09/14 05:15:54;;;;;;;;;;;;;;;21.79;59.49;101699.53;4253028;27;19922;-65
2023/09/14 05:17:55;;;;;;;;;;;;;;;21.78;59.58;101700.47;4194452;28;20004;-64
2023/09/14 05:19:57;;;;;;;;;;;;;;;21.77;59.24;101701.44;4207307;27;19924;-65
2023/09/14 05:21:59;;;;;;;;;;;;;;;21.76;59.40;101705.91;4237286;27;20298;-65
2023/09/14 05:24:00;;;;;;;;;;;;;;;21.76;59.55;101703.25;4178757;28;19925;-65
2023/09/14 05:26:02;;;;;;;;;;;;;;;21.77;59.54;101704.13;4245356;27;19931;-65
2023/09/14 05:28:09;;;;;;;;;;;;;;;21.76;59.28;101700.56;4185551;27;20015;-65
2023/09/14 05:30:10;;;;;;;;;;;;;;;21.76;59.61;101699.72;4191040;27;19929;-63
2023/09/14 05:32:12;;;;;;;;;;;;;;;21.75;59.77;101706.03;4231740;27;19936;-65
2023/09/14 05:34:13;;;;;;;;;;;;;;;21.75;59.41;101701.56;4195046;28;19924;-65
2023/09/14 05:36:15;;;;;;;;;;;;;;;21.75;59.81;101706.03;4241734;27;19931;-65
2023/09/14 05:38:17;;;;;;;;;;;;;;;21.74;59.71;101697.16;4191935;27;19925;-65
2023/09/14 05:40:18;;;;;;;;;;;;;;;21.73;59.72;101700.78;4199353;27;19922;-65
2023/09/14 05:42:22;;;;;;;;;;;;;;;21.74;59.63;101709.66;4249060;27;19925;-65
2023/09/14 05:44:24;;;;;;;;;;;;;;;21.74;59.58;101709.66;4186534;28;20019;-65
2023/09/14 05:46:25;;;;;;;;;;;;;;;21.73;59.70;101707.97;4213027;27;19979;-65
2023/09/14 05:48:27;;;;;;;;;;;;;;;21.73;59.72;101710.66;4255811;27;19934;-64
2023/09/14 05:50:28;;;;;;;;;;;;;;;21.72;59.28;101708.94;4273781;27;19952;-65
2023/09/14 05:52:31;;;;;;;;;;;;;;;21.71;59.75;101708.06;4212203;27;20364;-65
2023/09/14 05:54:33;;;;;;;;;;;;;;;21.71;59.52;101713.41;4282572;27;19929;-65
2023/09/14 05:56:34;;;;;;;;;;;;;;;21.71;59.54;101716.09;4241441;27;20373;-65
2023/09/14 05:58:38;;;;;;;;;;;;;;;21.71;59.74;101716.09;4244914;27;20374;-67
2023/09/14 06:00:40;;;;;;;;;;;;;;;21.70;59.75;101717.91;4273859;27;19923;-66
2023/09/14 06:02:42;;;;;;;;;;;;;;;21.70;59.58;101722.41;4200789;27;19985;-65
2023/09/14 06:04:44;;;;;;;;;;;;;;;21.70;59.62;101725.94;4282270;27;19934;-65
2023/09/14 06:06:46;;;;;;;;;;;;;;;21.70;59.33;101725.06;4236080;27;20065;-66
2023/09/14 06:08:48;;;;;;;;;;;;;;;21.69;59.41;101718.88;4244859;27;19931;-65
2023/09/14 06:10:50;;;;;;;;;;;;;;;21.69;59.45;101729.59;4281195;27;19923;-65
2023/09/14 06:12:51;;;;;;;;;;;;;;;21.70;59.50;101727.75;4198390;27;19964;-65
2023/09/14 06:14:53;;;;;;;;;;;;;;;21.69;59.51;101728.75;4281849;27;19922;-65
2023/09/14 06:16:55;;;;;;;;;;;;;;;21.70;59.30;101733.09;4252875;27;19923;-65
2023/09/14 06:18:56;;;;;;;;;;;;;;;21.69;59.36;101726.06;4217685;27;19923;-65
2023/09/14 06:21:01;;;;;;;;;;;;;;;21.69;59.78;101728.75;4281974;27;20294;-64
2023/09/14 06:23:02;;;;;;;;;;;;;;;21.68;59.72;101730.53;4209795;27;19968;-65
2023/09/14 06:25:04;;;;;;;;;;;;;;;21.68;59.73;101730.53;4276355;27;20302;-66
2023/09/14 06:27:05;;;;;;;;;;;;;;;21.69;59.66;101734.09;4267837;27;19931;-65
2023/09/14 06:29:11;;;;;;;;;;;;;;;21.62;59.58;101716.72;4209625;27;19934;-66
2023/09/14 06:31:13;;;;;;;;;;;;;;;21.68;59.47;101737.72;4281735;27;19926;-65
2023/09/14 06:33:15;;;;;;;;;;;;;;;21.68;59.72;101732.38;4216526;27;19925;-65
2023/09/14 06:35:17;;;;;;;;;;;;;;;21.69;59.50;101734.09;4269575;27;20360;-65
2023/09/14 06:37:20;;;;;;;;;;;;;;;21.68;59.62;101727.88;4272572;27;19962;-66
2023/09/14 06:39:22;;;;;;;;;;;;;;;21.68;59.78;101724.34;4183082;28;19964;-65
2023/09/14 06:41:23;;;;;;;;;;;;;;;21.68;59.70;101724.34;4176266;28;19925;-66
2023/09/14 06:43:25;;;;;;;;;;;;;;;21.67;59.37;101731.50;4222492;27;19922;-65
2023/09/14 06:45:26;;;;;;;;;;;;;;;21.68;59.37;101729.69;4207220;27;20448;-66
2023/09/14 06:47:28;;;;;;;;;;;;;;;21.67;59.37;101730.66;4218039;27;20389;-66
2023/09/14 06:49:29;;;;;;;;;;;;;;;21.68;59.46;101729.69;4211575;27;20272;-66
2023/09/14 06:51:31;;;;;;;;;;;;;;;21.66;59.50;101729.78;4281813;27;19945;-65
2023/09/14 06:53:33;;;;;;;;;;;;;;;21.67;59.67;101736.00;4236790;27;19925;-65
2023/09/14 06:55:38;;;;;;;;;;;;;;;21.67;59.32;101734.16;4248806;27;19961;-65
2023/09/14 06:57:40;;;;;;;;;;;;;;;21.67;59.38;101738.69;4272519;27;19930;-65
2023/09/14 06:59:41;;;;;;;;;;;;;;;21.67;59.60;101734.16;4211049;27;19925;-65
2023/09/14 07:01:43;;;;;;;;;;;;;;;21.67;59.49;101734.16;4281227;27;19939;-65
2023/09/14 07:03:45;;;;;;;;;;;;;;;21.66;59.52;101735.13;4231750;27;19929;-65
2023/09/14 07:05:47;;;;;;;;;;;;;;;21.67;59.58;101744.88;4247775;27;19962;-66
2023/09/14 07:07:48;;;;;;;;;;;;;;;21.68;59.37;101741.25;4260898;27;19923;-66
2023/09/14 07:09:50;;;;;;;;;;;;;;;21.67;59.37;101747.56;4207325;27;19964;-65
2023/09/14 07:11:52;;;;;;;;;;;;;;;21.67;59.50;101747.56;4281120;27;19922;-65
2023/09/14 07:13:53;;;;;;;;;;;;;;;21.67;59.38;101742.22;4254699;27;19939;-65
2023/09/14 07:15:55;;;;;;;;;;;;;;;21.67;59.46;101755.59;4226569;27;20010;-65
2023/09/14 07:17:56;;;;;;;;;;;;;;;21.67;59.40;101750.25;4193888;28;20385;-65
2023/09/14 07:19:58;;;;;;;;;;;;;;;21.67;59.34;101744.88;4204031;27;19936;-65
2023/09/14 07:22:00;;;;;;;;;;;;;;;21.68;59.41;101754.63;4277439;27;19929;-65
2023/09/14 07:24:03;;;;;;;;;;;;;;;21.68;59.39;101745.75;4265306;27;20013;-65
2023/09/14 07:26:07;;;;;;;;;;;;;;;21.69;59.18;101751.00;4212014;27;19923;-65
2023/09/14 07:28:08;;;;;;;;;;;;;;;21.70;59.39;101743.81;4281604;27;19958;-65
2023/09/14 07:30:13;;;;;;;;;;;;;;;21.70;59.05;101747.38;4214613;27;19932;-66
2023/09/14 07:32:14;;;;;;;;;;;;;;;21.71;59.04;101745.53;4271952;27;19952;-66
2023/09/14 07:34:16;;;;;;;;;;;;;;;21.71;58.89;101748.22;4270901;27;20338;-65
2023/09/14 07:36:18;;;;;;;;;;;;;;;21.72;59.15;101749.94;4213671;27;19927;-65
2023/09/14 07:38:20;;;;;;;;;;;;;;;21.72;59.31;101752.63;4281312;27;19923;-64
2023/09/14 07:40:22;;;;;;;;;;;;;;;21.72;59.33;101752.63;4222149;27;19932;-64
2023/09/14 07:42:24;;;;;;;;;;;;;;;21.73;59.14;101742.78;4265131;27;19972;-64
2023/09/14 07:44:26;;;;;;;;;;;;;;;21.74;59.34;101741.78;4250219;27;19927;-64
2023/09/14 07:46:27;;;;;;;;;;;;;;;21.73;59.26;101746.31;4251989;27;19952;-64
2023/09/14 07:48:29;;;;;;;;;;;;;;;21.72;58.91;101752.63;4180361;28;19931;-65
2023/09/14 07:50:39;;;;;;;;;;;;;;;21.72;59.21;101749.94;4228191;27;19923;-64
2023/09/14 07:52:41;;;;;;;;;;;;;;;21.71;58.98;101748.22;4201892;27;20007;-64
2023/09/14 07:54:43;;;;;;;;;;;;;;;21.74;58.95;101747.16;4188509;27;19923;-65
2023/09/14 07:56:44;;;;;;;;;;;;;;;21.74;59.15;101756.06;4250399;27;19937;-63
2023/09/14 07:58:46;;;;;;;;;;;;;;;21.73;59.14;101754.34;4180274;28;20016;-65
2023/09/14 08:00:48;;;;;;;;;;;;;;;21.72;59.24;101755.28;4216290;27;20010;-63
2023/09/14 08:02:50;;;;;;;;;;;;;;;21.72;59.08;101752.63;4212323;27;19924;-64
2023/09/14 08:04:51;;;;;;;;;;;;;;;21.72;58.90;101754.44;4188409;27;19931;-64
2023/09/14 08:06:53;;;;;;;;;;;;;;;21.72;59.05;101757.97;4250456;27;19991;-64
2023/09/14 08:08:55;;;;;;;;;;;;;;;21.68;59.10;101753.78;4179680;28;20020;-64
2023/09/14 08:10:56;;;;;;;;;;;;;;;21.70;59.16;101760.75;4214101;27;19964;-64
2023/09/14 08:12:59;;;;;;;;;;;;;;;21.71;59.00;101766.97;4223046;27;20016;-64
2023/09/14 08:15:02;;;;;;;;;;;;;;;21.72;59.08;101767.84;4181509;27;19932;-64
2023/09/14 08:17:06;;;;;;;;;;;;;;;21.72;59.03;101773.19;4205263;27;19928;-65
2023/09/14 08:19:08;;;;;;;;;;;;;;;21.72;59.25;101770.50;4196118;28;20429;-64
2023/09/14 08:21:09;;;;;;;;;;;;;;;21.70;59.33;101771.47;4201920;27;19923;-65
2023/09/14 08:23:12;;;;;;;;;;;;;;;21.70;59.08;101771.47;4219881;27;19931;-65
2023/09/14 08:25:16;;;;;;;;;;;;;;;21.70;59.26;101775.94;4195808;28;20023;-65
2023/09/14 08:27:19;;;;;;;;;;;;;;;21.70;58.97;101774.16;4205637;27;20008;-66
2023/09/14 08:29:20;;;;;;;;;;;;;;;21.70;58.93;101776.81;4179682;28;19925;-65
2023/09/14 08:31:22;;;;;;;;;;;;;;;21.72;60.14;101771.34;4181992;27;19947;-68
2023/09/14 08:33:23;;;;;;;;;;;;;;;21.80;59.74;101776.19;4194826;28;19924;-68
2023/09/14 08:35:31;;;;;;;;;;;;;;;21.84;59.40;101775.03;4195499;28;19966;-65
2023/09/14 08:37:33;;;;;;;;;;;;;;;21.88;59.33;101775.69;4201830;27;19924;-65
2023/09/14 08:39:36;;;;;;;;;;;;;;;21.90;58.92;101777.31;4195271;28;19924;-66
2023/09/14 08:41:40;;;;;;;;;;;;;;;21.92;59.08;101777.19;4196235;27;19932;-66
2023/09/14 08:43:44;;;;;;;;;;;;;;;21.95;58.87;101774.31;4193211;28;20364;-66
2023/09/14 08:45:50;;;;;;;;;;;;;;;21.95;58.81;101772.50;4200688;28;19925;-67
2023/09/14 08:47:53;;;;;;;;;;;;;;;22.01;58.77;101773.91;4209972;27;19925;-64
2023/09/14 08:49:55;;;;;;;;;;;;;;;22.03;58.51;101772.00;4183980;28;20290;-65
2023/09/14 08:51:58;;;;;;;;;;;;;;;22.04;58.55;101768.34;4207418;27;19951;-64
2023/09/14 08:54:00;;;;;;;;;;;;;;;22.05;58.49;101772.72;4197431;27;20297;-62
2023/09/14 08:56:17;;;;;;;;;;;;;;;22.07;58.58;101772.66;4186576;27;19968;-63
2023/09/14 08:58:20;;;;;;;;;;;;;;;22.10;58.33;101775.09;4212434;28;19928;-65
2023/09/14 09:00:24;;;;;;;;;;;;;;;22.12;57.93;101778.56;4196144;28;20339;-67
2023/09/14 09:02:27;;;;;;;;;;;;;;;22.19;57.71;101782.53;4217917;27;19928;-64
2023/09/14 09:04:29;;;;;;;;;;;;;;;22.26;57.56;101774.91;4195589;28;19932;-63
2023/09/14 09:06:31;;;;;;;;;;;;;;;22.31;57.47;101779.00;4194492;28;19930;-63
2023/09/14 09:08:32;;;;;;;;;;;;;;;22.39;58.08;101778.50;4195473;27;19936;-60
2023/09/14 09:10:36;;;;;;;;;;;;;;;22.55;57.67;101783.66;4199545;27;20639;-63
2023/09/14 09:12:38;;;;;;;;;;;;;;;22.61;56.67;101782.38;4198453;27;20004;-65
2023/09/14 09:14:40;;;;;;;;;;;;;;;22.62;56.32;101776.06;4195596;27;19954;-64
2023/09/14 09:16:42;;;;;;;;;;;;;;;22.65;56.04;101776.69;4194006;28;19928;-65
2023/09/14 09:18:59;;;;;;;;;;;;;;;22.70;56.09;101775.50;4219347;27;19956;-65
2023/09/14 09:21:05;;;;;;;;;;;;;;;22.77;56.24;101774.97;4196995;27;19924;-64
2023/09/14 09:23:07;;;;;;;;;;;;;;;22.86;55.87;101770.78;4221941;27;20041;-67
2023/09/14 09:25:10;;;;;;;;;;;;;;;22.94;55.83;101772.91;4195640;28;20381;-69
2023/09/14 09:27:24;;;;;;;;;;;;;;;22.98;55.80;101769.91;4204581;28;20397;-69
2023/09/14 09:29:26;;;;;;;;;;;;;;;23.02;55.88;101775.91;4252597;27;19922;-68
2023/09/14 09:31:41;;;;;;;;;;;;;;;23.07;55.92;101778.25;4200854;28;19929;-68
2023/09/14 09:33:47;;;;;;;;;;;;;;;23.08;55.84;101772.78;4204460;27;20394;-70
2023/09/14 09:35:49;;;;;;;;;;;;;;;23.08;55.69;101772.78;4232289;27;19934;-70
2023/09/14 09:37:51;;;;;;;;;;;;;;;23.07;56.10;101768.38;4205799;27;20021;-66
2023/09/14 09:39:55;;;;;;;;;;;;;;;23.16;56.36;101771.38;4188556;27;19925;-64
2023/09/14 09:41:57;;;;;;;;;;;;;;;23.23;56.27;101772.66;4194565;28;19924;-64
2023/09/14 09:43:59;;;;;;;;;;;;;;;23.32;55.91;101763.09;4202860;27;19928;-63
2023/09/14 09:46:00;;;;;;;;;;;;;;;23.36;55.26;101765.44;4247398;27;19923;-63
2023/09/14 09:48:02;;;;;;;;;;;;;;;23.39;55.57;101765.22;4266628;27;19922;-64
2023/09/14 09:50:11;;;;;;;;;;;;;;;23.41;55.05;101765.94;4205042;27;19968;-63
2023/09/14 09:52:14;;;;;;;;;;;;;;;23.40;54.89;101766.06;4193782;28;19931;-64
2023/09/14 09:54:19;;;;;;;;;;;;;;;23.37;54.63;101760.94;4213203;27;19979;-65
2023/09/14 09:56:23;;;;;;;;;;;;;;;23.36;54.85;101761.91;4223772;27;20393;-66
2023/09/14 09:58:37;;;;;;;;;;;;;;;23.35;55.19;101758.34;4177952;27;19965;-68
2023/09/14 10:00:39;;;;;;;;;;;;;;;23.37;55.14;101758.25;4203574;27;20028;-65
2023/09/14 10:02:41;;;;;;;;;;;;;;;23.39;54.94;101753.63;4229680;27;19924;-64
2023/09/14 10:04:52;;;;;;;;;;;;;;;23.41;54.97;101757.06;4201044;27;19973;-64
2023/09/14 10:06:59;;;;;;;;;;;;;;;23.43;54.73;101755.97;4192707;27;20507;-66
2023/09/14 10:09:06;;;;;;;;;;;;;;;23.47;54.88;101758.44;4194887;27;19993;-65
2023/09/14 10:11:07;;;;;;;;;;;;;;;23.47;54.90;101747.69;4193140;27;19929;-68
2023/09/14 10:13:16;;;;;;;;;;;;;;;23.47;54.97;101751.22;4193922;28;19936;-68
2023/09/14 10:15:18;;;;;;;;;;;;;;;23.45;54.82;101748.66;4228042;27;19983;-69
2023/09/14 10:17:21;;;;;;;;;;;;;;;23.45;54.77;101747.78;4225096;27;19933;-68
2023/09/14 10:19:24;;;;;;;;;;;;;;;23.44;54.90;101749.63;4211847;27;19924;-69
2023/09/14 10:21:27;;;;;;;;;;;;;;;23.44;54.80;101743.41;4210644;27;19969;-71
2023/09/14 10:23:29;;;;;;;;;;;;;;;23.43;55.07;101739.00;4258483;27;20297;-69
2023/09/14 10:25:31;;;;;;;;;;;;;;;23.43;55.03;101747.06;4209237;27;20411;-67
2023/09/14 10:27:33;;;;;;;;;;;;;;;23.40;55.76;101733.84;4214564;27;20409;-70
2023/09/14 10:29:38;;;;;;;;;;;;;;;23.40;55.82;101737.41;4191271;27;19928;-69